createdAt,value
2022-09-01T00:00:51.378Z,16.45
2022-09-01T00:01:51.089Z,16.41
2022-09-01T00:02:51.226Z,16.44
2022-09-01T00:03:50.945Z,16.45
2022-09-01T00:04:51.058Z,16.45
2022-09-01T00:05:53.889Z,16.45
2022-09-01T00:06:51.053Z,16.45
2022-09-01T00:07:50.965Z,16.44
2022-09-01T00:08:50.828Z,16.41
2022-09-01T00:09:51.071Z,16.41
2022-09-01T00:10:50.901Z,16.40
2022-09-01T00:11:50.989Z,16.37
2022-09-01T00:12:50.795Z,16.34
2022-09-01T00:13:50.823Z,16.34
2022-09-01T00:14:50.985Z,16.33
2022-09-01T00:15:51.026Z,16.33
2022-09-01T00:16:51.828Z,16.34
2022-09-01T00:17:50.794Z,16.34
2022-09-01T00:18:50.828Z,16.34
2022-09-01T00:19:50.733Z,16.32
2022-09-01T00:20:50.762Z,16.32
2022-09-01T00:21:51.276Z,16.29
2022-09-01T00:22:50.922Z,16.27
2022-09-01T00:23:50.987Z,16.25
2022-09-01T00:24:50.662Z,16.26
2022-09-01T00:25:51.424Z,16.27
2022-09-01T00:26:50.967Z,16.27
2022-09-01T00:27:51.248Z,16.25
2022-09-01T00:28:52.173Z,16.22
2022-09-01T00:29:50.529Z,16.22
2022-09-01T00:30:50.811Z,16.22
2022-09-01T00:31:50.528Z,16.23
2022-09-01T00:32:50.608Z,16.22
2022-09-01T00:33:50.770Z,16.23
2022-09-01T00:34:50.514Z,16.23
2022-09-01T00:35:50.800Z,16.23
2022-09-01T00:36:50.718Z,16.18
2022-09-01T00:37:50.546Z,16.17
2022-09-01T00:38:50.649Z,16.14
2022-09-01T00:39:50.493Z,16.11
2022-09-01T00:40:50.764Z,16.08
2022-09-01T00:41:50.290Z,16.07
2022-09-01T00:42:50.451Z,16.07
2022-09-01T00:43:50.404Z,16.07
2022-09-01T00:44:50.505Z,16.01
2022-09-01T00:45:51.022Z,16.01
2022-09-01T00:46:54.988Z,16.03
2022-09-01T00:47:51.293Z,16.03
2022-09-01T00:48:50.418Z,15.99
2022-09-01T00:49:50.323Z,15.98
2022-09-01T00:50:50.918Z,15.96
2022-09-01T00:51:50.342Z,15.93
2022-09-01T00:52:50.360Z,15.92
2022-09-01T00:53:50.301Z,15.88
2022-09-01T00:54:50.614Z,15.88
2022-09-01T00:55:50.226Z,15.88
2022-09-01T00:56:57.255Z,15.86
2022-09-01T00:57:51.593Z,15.85
2022-09-01T00:58:50.338Z,15.86
2022-09-01T00:59:50.111Z,15.81
2022-09-01T01:00:50.375Z,15.80
2022-09-01T01:01:50.338Z,15.80
2022-09-01T01:02:50.290Z,15.80
2022-09-01T01:03:50.624Z,15.80
2022-09-01T01:04:50.090Z,15.78
2022-09-01T01:05:50.097Z,15.80
2022-09-01T01:06:50.100Z,15.78
2022-09-01T01:07:50.109Z,15.78
2022-09-01T01:08:50.165Z,15.76
2022-09-01T01:09:50.550Z,15.74
2022-09-01T01:10:50.261Z,15.74
2022-09-01T01:11:50.049Z,15.71
2022-09-01T01:12:50.157Z,15.71
2022-09-01T01:13:50.208Z,15.71
2022-09-01T01:14:50.723Z,15.71
2022-09-01T01:15:50.022Z,15.70
2022-09-01T01:16:50.111Z,15.67
2022-09-01T01:17:50.183Z,15.67
2022-09-01T01:18:49.875Z,15.68
2022-09-01T01:19:49.842Z,15.67
2022-09-01T01:20:50.304Z,15.66
2022-09-01T01:21:50.603Z,15.66
2022-09-01T01:22:50.019Z,15.64
2022-09-01T01:23:50.276Z,15.64
2022-09-01T01:24:49.953Z,15.64
2022-09-01T01:25:50.341Z,15.64
2022-09-01T01:26:49.845Z,15.64
2022-09-01T01:27:50.656Z,15.60
2022-09-01T01:28:49.956Z,15.60
2022-09-01T01:29:49.823Z,15.60
2022-09-01T01:30:49.820Z,15.58
2022-09-01T01:31:49.859Z,15.56
2022-09-01T01:32:49.785Z,15.56
2022-09-01T01:33:49.660Z,15.60
2022-09-01T01:34:50.045Z,15.59
2022-09-01T01:35:49.777Z,15.59
2022-09-01T01:36:50.316Z,15.55
2022-09-01T01:37:49.751Z,15.52
2022-09-01T01:38:50.161Z,15.55
2022-09-01T01:39:49.571Z,15.51
2022-09-01T01:40:49.756Z,15.51
2022-09-01T01:41:50.659Z,15.49
2022-09-01T01:42:49.677Z,15.46
2022-09-01T01:43:49.753Z,15.46
2022-09-01T01:44:49.758Z,15.44
2022-09-01T01:45:49.799Z,15.40
2022-09-01T01:46:49.574Z,15.38
2022-09-01T01:47:49.590Z,15.34
2022-09-01T01:48:49.735Z,15.34
2022-09-01T01:49:50.542Z,15.33
2022-09-01T01:50:49.730Z,15.31
2022-09-01T01:51:49.646Z,15.31
2022-09-01T01:52:49.791Z,15.31
2022-09-01T01:53:50.697Z,15.31
2022-09-01T01:54:49.989Z,15.31
2022-09-01T01:55:49.567Z,15.30
2022-09-01T01:56:49.673Z,15.30
2022-09-01T01:57:49.609Z,15.28
2022-09-01T01:58:49.553Z,15.30
2022-09-01T01:59:49.719Z,15.28
2022-09-01T02:00:49.338Z,15.25
2022-09-01T02:01:49.483Z,15.25
2022-09-01T02:02:49.562Z,15.22
2022-09-01T02:03:49.382Z,15.18
2022-09-01T02:04:49.333Z,15.18
2022-09-01T02:05:49.570Z,15.15
2022-09-01T02:06:49.354Z,15.16
2022-09-01T02:07:49.295Z,15.12
2022-09-01T02:08:49.340Z,15.09
2022-09-01T02:09:49.289Z,15.04
2022-09-01T02:10:49.365Z,15.05
2022-09-01T02:11:49.937Z,15.05
2022-09-01T02:12:50.920Z,15.05
2022-09-01T02:13:49.552Z,15.04
2022-09-01T02:14:49.685Z,15.05
2022-09-01T02:15:49.199Z,15.04
2022-09-01T02:16:49.272Z,15.05
2022-09-01T02:17:56.504Z,15.07
2022-09-01T02:18:49.151Z,15.05
2022-09-01T02:19:49.257Z,15.04
2022-09-01T02:20:49.564Z,15.05
2022-09-01T02:21:49.463Z,15.03
2022-09-01T02:22:49.485Z,15.03
2022-09-01T02:23:49.192Z,15.01
2022-09-01T02:24:49.289Z,15.00
2022-09-01T02:26:14.628Z,15.00
2022-09-01T02:26:50.409Z,14.98
2022-09-01T02:27:49.202Z,14.95
2022-09-01T02:28:54.414Z,14.94
2022-09-01T02:29:50.476Z,14.94
2022-09-01T02:30:49.174Z,14.95
2022-09-01T02:31:49.162Z,14.94
2022-09-01T02:32:49.773Z,14.91
2022-09-01T02:33:49.201Z,14.93
2022-09-01T02:34:48.978Z,14.93
2022-09-01T02:35:49.029Z,14.93
2022-09-01T02:36:48.815Z,14.93
2022-09-01T02:37:48.932Z,14.90
2022-09-01T02:38:53.503Z,14.87
2022-09-01T02:39:50.026Z,14.87
2022-09-01T02:40:49.064Z,14.87
2022-09-01T02:41:48.965Z,14.87
2022-09-01T02:42:48.846Z,14.86
2022-09-01T02:43:48.994Z,14.85
2022-09-01T02:44:48.785Z,14.83
2022-09-01T02:45:48.829Z,14.83
2022-09-01T02:46:48.695Z,14.82
2022-09-01T02:47:48.894Z,14.80
2022-09-01T02:48:48.903Z,14.80
2022-09-01T02:49:48.988Z,14.80
2022-09-01T02:50:49.654Z,14.80
2022-09-01T02:51:48.703Z,14.80
2022-09-01T02:52:49.235Z,14.79
2022-09-01T02:53:48.655Z,14.75
2022-09-01T02:54:48.765Z,14.75
2022-09-01T02:55:48.621Z,14.74
2022-09-01T02:56:48.853Z,14.74
2022-09-01T02:57:49.050Z,14.71
2022-09-01T02:58:49.965Z,14.69
2022-09-01T02:59:49.674Z,14.69
2022-09-01T03:00:48.698Z,14.69
2022-09-01T03:01:48.500Z,14.66
2022-09-01T03:02:48.699Z,14.64
2022-09-01T03:03:48.828Z,14.64
2022-09-01T03:04:48.652Z,14.64
2022-09-01T03:05:48.689Z,14.63
2022-09-01T03:06:48.458Z,14.61
2022-09-01T03:07:50.060Z,14.59
2022-09-01T03:08:48.461Z,14.59
2022-09-01T03:09:48.564Z,14.60
2022-09-01T03:10:48.449Z,14.60
2022-09-01T03:11:48.582Z,14.59
2022-09-01T03:12:48.806Z,14.59
2022-09-01T03:13:49.110Z,14.60
2022-09-01T03:14:48.739Z,14.59
2022-09-01T03:15:48.654Z,14.60
2022-09-01T03:16:49.930Z,14.60
2022-09-01T03:17:48.615Z,14.61
2022-09-01T03:18:48.506Z,14.61
2022-09-01T03:19:48.362Z,14.60
2022-09-01T03:20:49.275Z,14.60
2022-09-01T03:21:48.604Z,14.60
2022-09-01T03:22:48.291Z,14.60
2022-09-01T03:23:48.460Z,14.60
2022-09-01T03:24:48.366Z,14.60
2022-09-01T03:25:48.406Z,14.60
2022-09-01T03:26:50.337Z,14.61
2022-09-01T03:27:48.562Z,14.60
2022-09-01T03:28:48.398Z,14.63
2022-09-01T03:29:48.509Z,14.59
2022-09-01T03:30:48.198Z,14.59
2022-09-01T03:31:48.436Z,14.57
2022-09-01T03:32:48.451Z,14.54
2022-09-01T03:33:48.239Z,14.54
2022-09-01T03:34:48.178Z,14.53
2022-09-01T03:35:48.221Z,14.49
2022-09-01T03:36:48.427Z,14.54
2022-09-01T03:37:48.349Z,14.53
2022-09-01T03:38:48.161Z,14.53
2022-09-01T03:39:48.194Z,14.54
2022-09-01T03:40:48.134Z,14.54
2022-09-01T03:41:48.520Z,14.56
2022-09-01T03:42:48.263Z,14.56
2022-09-01T03:43:48.838Z,14.54
2022-09-01T03:44:48.286Z,14.54
2022-09-01T03:45:49.820Z,14.57
2022-09-01T03:46:48.099Z,14.54
2022-09-01T03:47:48.096Z,14.52
2022-09-01T03:48:48.168Z,14.53
2022-09-01T03:49:48.071Z,14.49
2022-09-01T03:50:48.016Z,14.52
2022-09-01T03:51:48.003Z,14.52
2022-09-01T03:52:47.869Z,14.52
2022-09-01T03:53:48.142Z,14.53
2022-09-01T03:54:47.832Z,14.53
2022-09-01T03:55:48.100Z,14.52
2022-09-01T03:56:48.106Z,14.53
2022-09-01T03:57:48.064Z,14.53
2022-09-01T03:58:47.942Z,14.54
2022-09-01T03:59:47.855Z,14.53
2022-09-01T04:00:49.226Z,14.53
2022-09-01T04:01:47.919Z,14.54
2022-09-01T04:02:47.857Z,14.53
2022-09-01T04:03:49.057Z,14.53
2022-09-01T04:04:47.827Z,14.49
2022-09-01T04:05:48.529Z,14.46
2022-09-01T04:06:47.984Z,14.46
2022-09-01T04:07:47.717Z,14.46
2022-09-01T04:08:47.688Z,14.44
2022-09-01T04:09:47.911Z,14.39
2022-09-01T04:10:47.703Z,14.39
2022-09-01T04:11:48.961Z,14.41
2022-09-01T04:12:47.746Z,14.36
2022-09-01T04:13:47.573Z,14.35
2022-09-01T04:14:47.946Z,14.34
2022-09-01T04:15:47.690Z,14.34
2022-09-01T04:16:47.860Z,14.31
2022-09-01T04:17:47.682Z,14.29
2022-09-01T04:18:47.716Z,14.27
2022-09-01T04:19:47.810Z,14.27
2022-09-01T04:20:47.552Z,14.26
2022-09-01T04:21:47.715Z,14.27
2022-09-01T04:22:47.487Z,14.27
2022-09-01T04:23:47.644Z,14.27
2022-09-01T04:24:47.646Z,14.26
2022-09-01T04:25:47.452Z,14.24
2022-09-01T04:26:47.865Z,14.26
2022-09-01T04:27:47.470Z,14.23
2022-09-01T04:28:47.548Z,14.24
2022-09-01T04:29:47.843Z,14.23
2022-09-01T04:30:47.582Z,14.24
2022-09-01T04:31:48.740Z,14.24
2022-09-01T04:32:47.915Z,14.23
2022-09-01T04:33:47.469Z,14.21
2022-09-01T04:34:47.411Z,14.21
2022-09-01T04:35:47.613Z,14.20
2022-09-01T04:36:49.941Z,14.20
2022-09-01T04:37:47.436Z,14.20
2022-09-01T04:38:47.441Z,14.21
2022-09-01T04:39:47.282Z,14.23
2022-09-01T04:40:47.875Z,14.24
2022-09-01T04:41:48.935Z,14.23
2022-09-01T04:42:47.928Z,14.24
2022-09-01T04:43:47.400Z,14.26
2022-09-01T04:44:48.162Z,14.24
2022-09-01T04:45:48.588Z,14.23
2022-09-01T04:46:47.420Z,14.23
2022-09-01T04:47:47.696Z,14.21
2022-09-01T04:48:47.565Z,14.23
2022-09-01T04:49:51.687Z,14.20
2022-09-01T04:50:47.713Z,14.19
2022-09-01T04:51:51.180Z,14.17
2022-09-01T04:52:48.466Z,14.19
2022-09-01T04:53:47.312Z,14.17
2022-09-01T04:54:47.413Z,14.13
2022-09-01T04:55:49.899Z,14.12
2022-09-01T04:56:47.447Z,14.12
2022-09-01T04:57:47.188Z,14.12
2022-09-01T04:58:47.313Z,14.11
2022-09-01T04:59:47.288Z,14.11
2022-09-01T05:00:47.208Z,14.13
2022-09-01T05:01:47.223Z,14.16
2022-09-01T05:02:47.271Z,14.13
2022-09-01T05:03:47.986Z,14.16
2022-09-01T05:04:47.525Z,14.16
2022-09-01T05:05:46.921Z,14.16
2022-09-01T05:06:47.054Z,14.16
2022-09-01T05:07:47.135Z,14.17
2022-09-01T05:08:47.023Z,14.16
2022-09-01T05:09:47.153Z,14.16
2022-09-01T05:10:48.679Z,14.13
2022-09-01T05:11:47.177Z,14.12
2022-09-01T05:12:47.262Z,14.11
2022-09-01T05:13:47.044Z,14.12
2022-09-01T05:14:47.055Z,14.16
2022-09-01T05:15:48.298Z,14.16
2022-09-01T05:16:47.060Z,14.13
2022-09-01T05:17:46.948Z,14.12
2022-09-01T05:18:49.719Z,14.11
2022-09-01T05:19:47.614Z,14.11
2022-09-01T05:20:48.725Z,14.12
2022-09-01T05:21:46.759Z,14.12
2022-09-01T05:22:47.985Z,14.11
2022-09-01T05:23:46.769Z,14.11
2022-09-01T05:24:47.861Z,14.11
2022-09-01T05:25:47.308Z,14.09
2022-09-01T05:26:47.746Z,14.09
2022-09-01T05:27:47.454Z,14.09
2022-09-01T05:28:46.794Z,14.09
2022-09-01T05:29:49.257Z,14.06
2022-09-01T05:30:46.645Z,14.02
2022-09-01T05:31:46.769Z,14.02
2022-09-01T05:32:46.961Z,14.02
2022-09-01T05:33:48.414Z,14.02
2022-09-01T05:34:48.304Z,14.01
2022-09-01T05:35:48.185Z,14.02
2022-09-01T05:36:46.545Z,14.01
2022-09-01T05:37:46.542Z,14.02
2022-09-01T05:38:48.652Z,14.02
2022-09-01T05:39:46.544Z,14.04
2022-09-01T05:40:46.673Z,14.02
2022-09-01T05:41:50.280Z,14.04
2022-09-01T05:42:46.504Z,14.04
2022-09-01T05:43:48.040Z,14.05
2022-09-01T05:44:47.211Z,14.06
2022-09-01T05:46:05.475Z,14.05
2022-09-01T05:46:50.756Z,14.04
2022-09-01T05:47:46.679Z,14.05
2022-09-01T05:48:47.981Z,14.06
2022-09-01T05:49:46.637Z,14.09
2022-09-01T05:50:48.723Z,14.11
2022-09-01T05:51:50.805Z,14.12
2022-09-01T05:52:47.213Z,14.13
2022-09-01T05:53:46.972Z,14.17
2022-09-01T05:54:47.533Z,14.17
2022-09-01T05:55:46.782Z,14.16
2022-09-01T05:56:54.426Z,14.13
2022-09-01T05:57:48.130Z,14.12
2022-09-01T05:59:47.277Z,14.12
2022-09-01T06:00:46.530Z,14.12
2022-09-01T06:01:50.041Z,14.16
2022-09-01T06:02:46.306Z,14.17
2022-09-01T06:03:46.472Z,14.20
2022-09-01T06:04:46.706Z,14.20
2022-09-01T06:05:47.330Z,14.21
2022-09-01T06:07:08.562Z,14.24
2022-09-01T06:07:49.927Z,14.24
2022-09-01T06:08:46.967Z,14.27
2022-09-01T06:09:48.733Z,14.30
2022-09-01T06:10:46.232Z,14.31
2022-09-01T06:11:46.991Z,14.34
2022-09-01T06:12:48.668Z,14.38
2022-09-01T06:13:47.312Z,14.41
2022-09-01T06:14:46.011Z,14.42
2022-09-01T06:15:46.163Z,14.45
2022-09-01T06:16:48.309Z,14.48
2022-09-01T06:17:46.469Z,14.48
2022-09-01T06:18:47.791Z,14.52
2022-09-01T06:19:47.249Z,14.54
2022-09-01T06:20:46.276Z,14.60
2022-09-01T06:21:46.117Z,14.66
2022-09-01T06:22:46.713Z,14.72
2022-09-01T06:23:47.334Z,14.78
2022-09-01T06:24:49.643Z,14.80
2022-09-01T06:25:47.216Z,14.82
2022-09-01T06:26:46.544Z,14.82
2022-09-01T06:27:46.478Z,14.83
2022-09-01T06:28:52.694Z,14.85
2022-09-01T06:29:49.591Z,14.86
2022-09-01T06:30:45.807Z,14.90
2022-09-01T06:31:46.478Z,14.91
2022-09-01T06:32:46.320Z,14.94
2022-09-01T06:33:47.377Z,14.95
2022-09-01T06:34:46.043Z,14.95
2022-09-01T06:35:50.100Z,15.00
2022-09-01T06:36:48.373Z,15.01
2022-09-01T06:37:46.243Z,15.04
2022-09-01T06:38:45.970Z,15.05
2022-09-01T06:39:48.936Z,15.09
2022-09-01T06:40:46.966Z,15.13
2022-09-01T06:41:45.662Z,15.15
2022-09-01T06:42:45.974Z,15.18
2022-09-01T06:43:48.337Z,15.20
2022-09-01T06:44:48.523Z,15.23
2022-09-01T06:45:46.027Z,15.27
2022-09-01T06:46:47.102Z,15.28
2022-09-01T06:47:45.950Z,15.31
2022-09-01T06:48:45.619Z,15.37
2022-09-01T06:51:20.147Z,15.41
2022-09-01T06:52:07.885Z,15.43
2022-09-01T06:54:12.527Z,15.48
2022-09-01T06:55:08.509Z,15.51
2022-09-01T06:56:07.461Z,15.52
2022-09-01T06:58:08.422Z,15.58
2022-09-01T06:59:07.666Z,15.64
2022-09-01T07:00:07.607Z,15.67
2022-09-01T07:01:10.761Z,15.68
2022-09-01T07:02:12.621Z,15.71
2022-09-01T07:05:03.512Z,15.84
2022-09-01T07:06:59.693Z,15.89
2022-09-01T07:09:47.712Z,15.98
2022-09-01T07:13:05.457Z,16.11
2022-09-01T07:16:52.466Z,16.23
2022-09-01T07:17:43.986Z,16.29
2022-09-01T07:18:44.680Z,16.29
2022-09-01T07:19:52.033Z,16.34
2022-09-01T07:22:06.680Z,16.40
2022-09-01T07:24:44.288Z,16.48
2022-09-01T07:26:00.937Z,16.51
2022-09-01T07:26:47.593Z,16.54
2022-09-01T07:27:43.074Z,16.57
2022-09-01T07:28:47.768Z,16.59
2022-09-01T07:29:42.723Z,16.62
2022-09-01T07:30:43.308Z,16.66
2022-09-01T07:31:50.299Z,16.69
2022-09-01T07:32:47.727Z,16.72
2022-09-01T07:33:44.133Z,16.75
2022-09-01T07:36:24.947Z,16.78
2022-09-01T07:38:49.459Z,16.91
2022-09-01T07:39:51.806Z,16.96
2022-09-01T07:43:48.450Z,17.17
2022-09-01T07:44:44.220Z,17.21
2022-09-01T07:45:58.904Z,17.25
2022-09-01T07:46:43.890Z,17.30
2022-09-01T07:47:57.906Z,17.35
2022-09-01T07:51:43.761Z,17.51
2022-09-01T07:52:43.427Z,17.54
2022-09-01T07:53:42.404Z,17.57
2022-09-01T07:54:43.188Z,17.60
2022-09-01T07:55:44.262Z,17.63
2022-09-01T07:56:43.009Z,17.70
2022-09-01T07:57:42.301Z,17.70
2022-09-01T07:58:44.286Z,17.68
2022-09-01T07:59:42.519Z,17.70
2022-09-01T08:00:42.845Z,17.68
2022-09-01T08:01:42.701Z,17.70
2022-09-01T08:02:43.489Z,17.71
2022-09-01T08:03:42.928Z,17.71
2022-09-01T08:04:44.637Z,17.71
2022-09-01T08:05:43.064Z,17.73
2022-09-01T08:06:42.173Z,17.76
2022-09-01T08:07:57.657Z,17.77
2022-09-01T08:08:43.129Z,17.79
2022-09-01T08:09:44.165Z,17.80
2022-09-01T08:10:42.183Z,17.81
2022-09-01T08:12:44.180Z,17.94
2022-09-01T08:13:51.998Z,18.02
2022-09-01T08:14:44.532Z,18.10
2022-09-01T08:16:06.772Z,18.19
2022-09-01T08:16:51.942Z,18.25
2022-09-01T08:17:51.271Z,18.29
2022-09-01T08:18:50.354Z,18.32
2022-09-01T08:19:49.334Z,18.35
2022-09-01T08:20:42.720Z,18.38
2022-09-01T08:21:43.278Z,18.44
2022-09-01T08:22:46.651Z,18.49
2022-09-01T08:23:41.874Z,18.49
2022-09-01T08:24:42.903Z,18.47
2022-09-01T08:25:55.784Z,18.49
2022-09-01T08:26:43.716Z,18.49
2022-09-01T08:27:43.895Z,18.51
2022-09-01T08:28:45.918Z,18.53
2022-09-01T08:29:44.000Z,18.59
2022-09-01T08:30:42.312Z,18.72
2022-09-01T08:31:43.131Z,18.86
2022-09-01T08:32:41.847Z,18.94
2022-09-01T08:33:41.844Z,18.93
2022-09-01T08:34:44.146Z,18.91
2022-09-01T08:35:55.952Z,18.91
2022-09-01T08:36:46.159Z,18.90
2022-09-01T08:37:44.406Z,18.89
2022-09-01T08:38:42.623Z,18.89
2022-09-01T08:39:43.294Z,18.90
2022-09-01T08:40:43.108Z,18.90
2022-09-01T08:41:47.238Z,18.91
2022-09-01T08:42:43.179Z,18.90
2022-09-01T08:43:43.991Z,18.91
2022-09-01T08:44:44.496Z,18.96
2022-09-01T08:45:41.758Z,19.05
2022-09-01T08:46:45.148Z,19.13
2022-09-01T08:48:04.686Z,19.17
2022-09-01T08:49:44.044Z,19.30
2022-09-01T08:50:41.869Z,19.34
2022-09-01T08:51:41.647Z,19.38
2022-09-01T08:52:42.259Z,19.43
2022-09-01T08:53:42.676Z,19.47
2022-09-01T08:54:41.574Z,19.53
2022-09-01T08:55:41.564Z,19.57
2022-09-01T08:56:46.984Z,19.58
2022-09-01T08:57:48.333Z,19.64
2022-09-01T08:58:48.945Z,19.72
2022-09-01T08:59:41.958Z,19.82
2022-09-01T09:00:43.093Z,19.87
2022-09-01T09:01:42.772Z,20.02
2022-09-01T09:02:49.451Z,20.26
2022-09-01T09:03:41.650Z,20.42
2022-09-01T09:04:43.743Z,20.50
2022-09-01T09:05:46.915Z,20.54
2022-09-01T09:06:53.110Z,20.41
2022-09-01T09:07:41.882Z,20.34
2022-09-01T09:08:50.261Z,20.31
2022-09-01T09:09:53.057Z,20.34
2022-09-01T09:10:43.205Z,20.41
2022-09-01T09:11:50.168Z,20.51
2022-09-01T09:12:49.537Z,20.53
2022-09-01T09:13:47.741Z,20.57
2022-09-01T09:14:42.633Z,20.60
2022-09-01T09:15:42.257Z,20.58
2022-09-01T09:16:42.550Z,20.57
2022-09-01T09:17:42.191Z,20.57
2022-09-01T09:18:54.820Z,20.53
2022-09-01T09:19:45.100Z,20.53
2022-09-01T09:20:42.624Z,20.57
2022-09-01T09:21:43.228Z,20.64
2022-09-01T09:22:41.319Z,20.71
2022-09-01T09:23:42.252Z,20.75
2022-09-01T09:24:42.701Z,20.78
2022-09-01T09:25:41.574Z,20.81
2022-09-01T09:26:42.667Z,20.85
2022-09-01T09:27:42.240Z,20.90
2022-09-01T09:28:41.487Z,20.98
2022-09-01T09:29:45.525Z,21.03
2022-09-01T09:30:42.203Z,21.09
2022-09-01T09:31:45.990Z,21.13
2022-09-01T09:33:09.666Z,21.18
2022-09-01T09:33:51.671Z,21.18
2022-09-01T09:34:42.124Z,21.19
2022-09-01T09:35:42.502Z,21.09
2022-09-01T09:36:41.183Z,21.08
2022-09-01T09:37:41.309Z,21.11
2022-09-01T09:38:42.685Z,21.13
2022-09-01T09:39:43.249Z,21.19
2022-09-01T09:41:07.489Z,21.27
2022-09-01T09:41:42.592Z,21.37
2022-09-01T09:42:41.213Z,21.36
2022-09-01T09:43:44.570Z,21.31
2022-09-01T09:44:41.313Z,21.33
2022-09-01T09:45:47.192Z,21.27
2022-09-01T09:46:46.058Z,21.13
2022-09-01T09:47:44.664Z,21.09
2022-09-01T09:48:43.723Z,20.98
2022-09-01T09:49:48.645Z,20.94
2022-09-01T09:50:45.480Z,20.88
2022-09-01T09:51:41.393Z,20.82
2022-09-01T09:52:42.014Z,20.79
2022-09-01T09:53:41.950Z,20.73
2022-09-01T09:54:40.692Z,20.76
2022-09-01T09:55:42.628Z,20.81
2022-09-01T09:56:47.124Z,20.91
2022-09-01T09:57:43.793Z,20.96
2022-09-01T09:58:42.049Z,21.01
2022-09-01T10:00:00.445Z,21.08
2022-09-01T10:00:43.491Z,21.13
2022-09-01T10:01:46.368Z,21.27
2022-09-01T10:02:42.317Z,21.34
2022-09-01T10:03:45.234Z,21.36
2022-09-01T10:04:40.998Z,21.38
2022-09-01T10:05:40.589Z,21.46
2022-09-01T10:06:43.460Z,21.51
2022-09-01T10:07:40.875Z,21.52
2022-09-01T10:08:40.709Z,21.53
2022-09-01T10:09:42.543Z,21.56
2022-09-01T10:12:03.463Z,21.53
2022-09-01T10:13:03.446Z,21.56
2022-09-01T10:14:05.866Z,21.61
2022-09-01T10:15:04.570Z,21.55
2022-09-01T10:21:37.725Z,21.82
2022-09-01T10:22:29.202Z,21.85
2022-09-01T10:23:31.624Z,21.91
2022-09-01T10:24:38.637Z,21.98
2022-09-01T10:25:32.229Z,22.04
2022-09-01T10:32:34.592Z,22.29
2022-09-01T10:33:11.415Z,22.31
2022-09-01T10:33:41.027Z,22.35
2022-09-01T10:36:28.592Z,22.44
2022-09-01T10:37:16.001Z,22.48
2022-09-01T10:38:14.497Z,22.48
2022-09-01T10:41:14.936Z,22.44
2022-09-01T10:41:39.109Z,22.46
2022-09-01T10:42:44.990Z,22.44
2022-09-01T10:43:42.790Z,22.31
2022-09-01T10:44:39.567Z,22.15
2022-09-01T10:45:40.476Z,22.04
2022-09-01T10:46:48.924Z,21.86
2022-09-01T10:47:40.590Z,21.79
2022-09-01T10:48:55.398Z,21.68
2022-09-01T10:49:39.839Z,21.71
2022-09-01T10:50:40.212Z,21.73
2022-09-01T10:52:08.593Z,21.79
2022-09-01T10:56:18.808Z,22.05
2022-09-01T10:57:08.860Z,22.06
2022-09-01T10:58:09.235Z,22.11
2022-09-01T11:00:34.847Z,22.24
2022-09-01T11:01:18.924Z,22.33
2022-09-01T11:03:29.799Z,22.46
2022-09-01T11:04:04.238Z,22.45
2022-09-01T11:05:02.232Z,22.46
2022-09-01T11:06:12.903Z,22.49
2022-09-01T11:07:13.343Z,22.54
2022-09-01T11:08:25.178Z,22.57
2022-09-01T11:09:05.181Z,22.56
2022-09-01T11:10:11.281Z,22.54
2022-09-01T11:11:09.593Z,22.59
2022-09-01T11:12:06.306Z,22.60
2022-09-01T11:13:03.312Z,22.63
2022-09-01T11:14:03.173Z,22.69
2022-09-01T11:15:02.296Z,22.70
2022-09-01T11:16:04.650Z,22.72
2022-09-01T11:17:02.476Z,22.76
2022-09-01T11:18:02.256Z,22.86
2022-09-01T11:19:04.310Z,22.96
2022-09-01T11:20:12.717Z,23.00
2022-09-01T11:21:10.489Z,23.03
2022-09-01T11:22:02.543Z,23.06
2022-09-01T11:23:03.515Z,23.04
2022-09-01T11:24:05.179Z,23.00
2022-09-01T11:25:12.468Z,23.01
2022-09-01T11:26:19.638Z,23.06
2022-09-01T11:27:13.536Z,23.06
2022-09-01T11:28:05.646Z,23.03
2022-09-01T11:29:01.589Z,23.07
2022-09-01T11:30:05.833Z,23.06
2022-09-01T11:31:17.000Z,23.06
2022-09-01T11:32:07.664Z,23.06
2022-09-01T11:33:03.223Z,23.06
2022-09-01T11:34:04.181Z,23.09
2022-09-01T11:35:16.786Z,23.12
2022-09-01T11:39:56.796Z,23.45
2022-09-01T11:40:58.147Z,23.63
2022-09-01T11:42:18.339Z,23.87
2022-09-01T11:43:12.429Z,23.94
2022-09-01T11:43:56.692Z,23.89
2022-09-01T11:44:51.782Z,23.84
2022-09-01T11:45:52.994Z,23.84
2022-09-01T11:46:51.213Z,23.74
2022-09-01T11:47:57.079Z,23.64
2022-09-01T11:49:16.344Z,23.64
2022-09-01T11:49:52.310Z,23.67
2022-09-01T11:50:53.428Z,23.63
2022-09-01T11:51:51.609Z,23.60
2022-09-01T11:53:21.429Z,23.59
2022-09-01T11:53:51.101Z,23.54
2022-09-01T11:54:54.967Z,23.52
2022-09-01T11:55:52.953Z,23.49
2022-09-01T11:57:01.857Z,23.47
2022-09-01T11:57:51.107Z,23.44
2022-09-01T11:58:50.183Z,23.49
2022-09-01T11:59:50.163Z,23.47
2022-09-01T12:00:50.245Z,23.45
2022-09-01T12:01:54.881Z,23.39
2022-09-01T12:02:53.617Z,23.34
2022-09-01T12:03:50.481Z,23.26
2022-09-01T12:04:53.161Z,23.18
2022-09-01T12:05:53.511Z,23.15
2022-09-01T12:06:52.813Z,23.15
2022-09-01T12:07:50.695Z,23.14
2022-09-01T12:08:50.394Z,23.15
2022-09-01T12:09:51.424Z,23.19
2022-09-01T12:10:53.876Z,23.26
2022-09-01T12:11:51.362Z,23.31
2022-09-01T12:12:50.233Z,23.37
2022-09-01T12:13:50.509Z,23.39
2022-09-01T12:15:05.134Z,23.42
2022-09-01T12:16:16.947Z,23.42
2022-09-01T12:16:53.371Z,23.44
2022-09-01T12:17:52.051Z,23.45
2022-09-01T12:18:57.191Z,23.45
2022-09-01T12:19:52.297Z,23.44
2022-09-01T12:20:51.678Z,23.50
2022-09-01T12:21:54.130Z,23.53
2022-09-01T12:22:51.240Z,23.56
2022-09-01T12:23:51.654Z,23.49
2022-09-01T12:24:51.010Z,23.38
2022-09-01T12:25:57.564Z,23.34
2022-09-01T12:26:51.373Z,23.31
2022-09-01T12:28:01.573Z,23.23
2022-09-01T12:28:52.554Z,23.21
2022-09-01T12:29:51.115Z,23.19
2022-09-01T12:30:50.341Z,23.18
2022-09-01T12:31:53.137Z,23.23
2022-09-01T12:33:24.782Z,23.31
2022-09-01T12:33:51.577Z,23.23
2022-09-01T12:34:50.650Z,23.31
2022-09-01T12:35:56.087Z,23.34
2022-09-01T12:36:58.260Z,23.37
2022-09-01T12:37:58.107Z,23.38
2022-09-01T12:38:49.596Z,23.44
2022-09-01T12:39:50.512Z,23.56
2022-09-01T12:40:51.756Z,23.59
2022-09-01T12:41:55.733Z,23.50
2022-09-01T12:42:50.400Z,23.41
2022-09-01T12:43:52.019Z,23.31
2022-09-01T12:44:50.910Z,23.21
2022-09-01T12:45:50.980Z,23.12
2022-09-01T12:46:50.440Z,23.06
2022-09-01T12:47:53.449Z,23.01
2022-09-01T12:48:50.767Z,22.99
2022-09-01T12:49:52.138Z,22.97
2022-09-01T12:50:50.965Z,22.96
2022-09-01T12:52:06.338Z,22.86
2022-09-01T12:52:55.324Z,22.82
2022-09-01T12:53:50.194Z,22.84
2022-09-01T12:54:54.291Z,22.82
2022-09-01T12:55:49.637Z,22.82
2022-09-01T12:56:51.828Z,22.76
2022-09-01T12:57:55.084Z,22.74
2022-09-01T12:58:51.754Z,22.70
2022-09-01T12:59:55.655Z,22.69
2022-09-01T13:00:51.785Z,22.72
2022-09-01T13:01:50.968Z,22.76
2022-09-01T13:02:50.699Z,22.78
2022-09-01T13:03:50.056Z,22.79
2022-09-01T13:04:58.972Z,22.81
2022-09-01T13:06:02.180Z,22.85
2022-09-01T13:06:53.234Z,22.91
2022-09-01T13:07:50.599Z,23.01
2022-09-01T13:08:51.192Z,23.11
2022-09-01T13:09:49.350Z,23.21
2022-09-01T13:10:51.562Z,23.32
2022-09-01T13:12:06.249Z,23.31
2022-09-01T13:12:53.119Z,23.35
2022-09-01T13:14:01.983Z,23.37
2022-09-01T13:14:56.462Z,23.37
2022-09-01T13:17:29.663Z,23.37
2022-09-01T13:18:31.340Z,23.38
2022-09-01T13:19:28.757Z,23.39
2022-09-01T13:20:24.597Z,23.44
2022-09-01T13:21:22.648Z,23.47
2022-09-01T13:22:24.205Z,23.45
2022-09-01T13:23:25.611Z,23.41
2022-09-01T13:24:26.545Z,23.38
2022-09-01T13:25:23.698Z,23.34
2022-09-01T13:26:30.352Z,23.26
2022-09-01T13:27:22.718Z,23.23
2022-09-01T13:28:22.575Z,23.18
2022-09-01T13:29:24.338Z,23.11
2022-09-01T13:30:26.243Z,23.09
2022-09-01T13:31:30.315Z,23.06
2022-09-01T13:32:35.049Z,23.04
2022-09-01T13:33:29.324Z,23.00
2022-09-01T13:34:24.647Z,22.97
2022-09-01T13:35:31.893Z,22.93
2022-09-01T13:36:52.386Z,22.89
2022-09-01T13:37:23.951Z,22.93
2022-09-01T13:38:24.148Z,22.97
2022-09-01T13:39:25.014Z,23.01
2022-09-01T13:41:38.136Z,23.11
2022-09-01T13:42:39.370Z,23.15
2022-09-01T13:43:38.316Z,23.22
2022-09-01T13:44:39.606Z,23.26
2022-09-01T13:45:35.483Z,23.29
2022-09-01T13:46:59.216Z,23.34
2022-09-01T13:49:03.090Z,23.39